createdAt,value
2023-02-14T16:51:06.632Z,2.82
2023-02-14T16:53:46.042Z,2.77
2023-02-14T16:56:37.347Z,2.78
2023-02-14T16:59:19.766Z,2.82
2023-02-14T17:01:57.222Z,2.86
2023-02-14T17:04:33.919Z,2.93
2023-02-14T17:07:13.521Z,3.00
2023-02-14T17:13:00.076Z,3.04
2023-02-14T17:15:39.840Z,2.98
2023-02-14T17:20:59.808Z,3.04
2023-02-14T17:23:34.882Z,2.96
2023-02-14T17:26:12.025Z,3.00
2023-02-14T17:32:05.602Z,3.06
2023-02-14T17:34:41.160Z,2.95
2023-02-14T17:37:19.180Z,3.00
2023-02-14T17:39:58.652Z,3.03
2023-02-14T17:42:35.722Z,3.06
2023-02-14T17:45:13.844Z,3.07
2023-02-14T17:47:58.897Z,3.06
2023-02-14T17:50:37.918Z,3.08
2023-02-14T17:53:13.415Z,3.10
2023-02-14T17:55:59.960Z,3.11
2023-02-14T17:58:36.241Z,3.09
2023-02-14T18:01:26.720Z,3.09
2023-02-14T18:04:18.944Z,3.02
2023-02-14T18:06:54.904Z,3.03
2023-02-14T18:09:30.354Z,3.04
2023-02-14T18:12:10.337Z,3.04
2023-02-14T18:14:47.821Z,3.04
2023-02-14T18:17:22.053Z,3.02
2023-02-14T18:19:57.379Z,3.01
2023-02-14T18:22:32.870Z,3.00
2023-02-14T18:25:10.409Z,2.97
2023-02-14T18:27:45.543Z,2.96
2023-02-14T18:30:21.336Z,2.95
2023-02-14T18:32:57.941Z,2.91
2023-02-14T18:35:34.062Z,2.90
2023-02-14T18:38:15.379Z,2.88
2023-02-14T18:40:53.601Z,2.84
2023-02-14T18:43:30.888Z,2.82
2023-02-14T18:46:10.232Z,2.76
2023-02-14T18:48:47.198Z,2.73
2023-02-14T18:51:24.104Z,2.71
2023-02-14T18:54:05.835Z,2.67
2023-02-14T18:56:44.319Z,2.63
2023-02-14T18:59:19.763Z,2.58
2023-02-14T19:01:57.764Z,2.56
2023-02-14T19:04:35.373Z,2.55
2023-02-14T19:07:10.510Z,2.53
2023-02-14T19:09:54.580Z,2.51
2023-02-14T19:12:29.667Z,2.52
2023-02-14T19:15:12.318Z,2.54
2023-02-14T19:17:51.138Z,2.56
2023-02-14T19:20:27.144Z,2.58
2023-02-14T19:23:04.497Z,2.61
2023-02-14T19:25:57.601Z,2.63
2023-02-14T19:28:36.045Z,2.60
2023-02-14T19:31:15.045Z,2.61
2023-02-14T19:33:56.018Z,2.62
2023-02-14T19:36:49.092Z,2.61
2023-02-14T19:39:27.077Z,2.61
2023-02-14T19:42:07.728Z,2.63
2023-02-14T19:44:49.898Z,2.66
2023-02-14T19:47:43.508Z,2.68
2023-02-14T19:50:22.229Z,2.70
2023-02-14T19:52:59.051Z,2.73
2023-02-14T19:55:38.990Z,2.71
2023-02-14T19:58:25.644Z,2.69
2023-02-14T20:01:03.378Z,2.70
2023-02-14T20:03:38.818Z,2.74
2023-02-14T20:06:16.137Z,2.74
2023-02-14T20:09:04.064Z,2.71
2023-02-14T20:11:41.638Z,2.74
2023-02-14T20:14:21.539Z,2.73
2023-02-14T20:17:00.686Z,2.70
2023-02-14T20:19:41.839Z,2.67
2023-02-14T20:22:17.098Z,2.68
2023-02-14T20:25:02.082Z,2.68
2023-02-14T20:27:38.788Z,2.67
2023-02-14T20:30:32.026Z,2.67
2023-02-14T20:33:08.454Z,2.67
2023-02-14T20:35:45.867Z,2.69
2023-02-14T20:38:22.502Z,2.69
2023-02-14T20:40:58.285Z,2.67
2023-02-14T20:43:33.049Z,2.67
2023-02-14T20:46:17.452Z,2.66
2023-02-14T20:49:13.837Z,2.61
2023-02-14T20:51:51.441Z,2.57
2023-02-14T20:54:29.582Z,2.52
2023-02-14T20:57:14.797Z,2.49
2023-02-14T20:59:50.587Z,2.47
2023-02-14T21:02:45.612Z,2.44
2023-02-14T21:05:23.930Z,2.43
2023-02-14T21:08:01.369Z,2.40
2023-02-14T21:10:41.023Z,2.36
2023-02-14T21:13:23.544Z,2.34
2023-02-14T21:16:16.880Z,2.28
2023-02-14T21:19:00.233Z,2.19
2023-02-14T21:21:39.322Z,2.12
2023-02-14T21:24:31.895Z,2.05
2023-02-14T21:27:22.772Z,2.02
2023-02-14T21:29:59.585Z,1.98
2023-02-14T21:32:36.701Z,1.95
2023-02-14T21:35:14.923Z,1.90
2023-02-14T21:37:56.261Z,1.85
2023-02-14T21:40:41.118Z,1.79
2023-02-14T21:43:21.154Z,1.71
2023-02-14T21:45:57.979Z,1.65
2023-02-14T21:48:57.363Z,1.61
2023-02-14T21:51:35.441Z,1.53
2023-02-14T21:54:14.467Z,1.51
2023-02-14T21:56:51.258Z,1.49
2023-02-14T21:59:31.470Z,1.48
2023-02-14T22:02:26.506Z,1.45
2023-02-14T22:05:18.652Z,1.38
2023-02-14T22:07:55.374Z,1.30
2023-02-14T22:10:40.847Z,1.26
2023-02-14T22:13:17.131Z,1.24
2023-02-14T22:15:56.106Z,1.21
2023-02-14T22:18:36.981Z,1.17
2023-02-14T22:21:14.692Z,1.14
2023-02-14T22:23:56.751Z,1.09
2023-02-14T22:26:39.326Z,1.07
2023-02-14T22:29:20.736Z,1.05
2023-02-14T22:32:01.746Z,0.99
2023-02-14T22:34:38.921Z,0.94
2023-02-14T22:37:16.483Z,0.92
2023-02-14T22:39:53.696Z,0.92
2023-02-14T22:42:31.028Z,0.89
2023-02-14T22:45:06.323Z,0.86
2023-02-14T22:47:43.676Z,0.78
2023-02-14T22:50:21.516Z,0.76
2023-02-14T22:53:04.299Z,0.73
2023-02-14T22:55:38.649Z,0.72
2023-02-14T22:58:15.472Z,0.71
2023-02-14T23:01:01.887Z,0.67
2023-02-14T23:03:41.016Z,0.65
2023-02-14T23:06:22.482Z,0.58
2023-02-14T23:09:19.102Z,0.52
2023-02-14T23:11:56.248Z,0.47
2023-02-14T23:14:47.693Z,0.47
2023-02-14T23:17:46.733Z,0.45
2023-02-14T23:20:45.159Z,0.41
2023-02-14T23:23:20.297Z,0.39
2023-02-14T23:25:59.760Z,0.37
2023-02-14T23:28:37.567Z,0.30
2023-02-14T23:31:30.299Z,0.26
2023-02-14T23:34:10.186Z,0.17
2023-02-14T23:36:48.687Z,0.16
2023-02-14T23:39:37.628Z,0.17
2023-02-14T23:42:18.022Z,0.17
2023-02-14T23:44:58.849Z,0.18
2023-02-14T23:47:42.059Z,0.22
2023-02-14T23:50:25.170Z,0.22
2023-02-14T23:53:08.548Z,0.22
2023-02-14T23:55:43.050Z,0.24
2023-02-14T23:58:22.176Z,0.26
